Terminal Aerodrome Forecast
Issued by NWS Louisville, KY

Home | Current Version | Previous Version | Text Only | Print | Product List | Glossary On
Versions: 1 2 3 4 5 6 7 8 9 10 11 12 13 14 15 16 17 18 19 20 21 22 23 24
245
FTUS43 KLMK 080711 AAA
TAFSDF
TAF AMD
KSDF 080711Z 0807/0912 29010KT P6SM VCSH BKN060
     FM081300 29012KT P6SM -RASN OVC030
     FM081700 27012G20KT 4SM -RASN BR OVC025
     FM081900 28012G20KT 3SM -SHSN BR OVC018
      TEMPO 0819/0822 2SM -SN BR OVC012
     FM082300 29012KT 5SM BR VCSH OVC020=

USA.gov is the U.S. government's official web portal to all federal, state and local government web resources and services.